createdAt,value
2023-01-08T00:01:17.067Z,0.60
2023-01-08T00:03:44.413Z,0.70
2023-01-08T00:06:15.298Z,0.70
2023-01-08T00:08:42.850Z,0.80
2023-01-08T00:11:10.288Z,0.80
2023-01-08T00:13:37.756Z,0.80
2023-01-08T00:16:14.759Z,0.70
2023-01-08T00:18:41.620Z,0.60
2023-01-08T00:21:08.499Z,0.60
2023-01-08T00:23:36.528Z,0.70
2023-01-08T00:26:06.259Z,0.50
2023-01-08T00:28:33.793Z,0.50
2023-01-08T00:31:04.010Z,0.60
2023-01-08T00:33:31.669Z,0.50
2023-01-08T00:35:58.745Z,0.50
2023-01-08T00:38:29.626Z,0.50
2023-01-08T00:40:57.442Z,0.50
2023-01-08T00:43:24.309Z,0.50
2023-01-08T00:45:54.039Z,0.60
2023-01-08T00:48:25.081Z,0.70
2023-01-08T00:50:53.834Z,0.80
2023-01-08T00:53:22.034Z,0.90
2023-01-08T00:55:49.384Z,1.00
2023-01-08T00:58:16.739Z,1.10
2023-01-08T01:00:43.605Z,1.10
2023-01-08T01:03:10.483Z,1.00
2023-01-08T01:05:37.310Z,1.00
2023-01-08T01:08:04.573Z,1.00
2023-01-08T01:10:31.416Z,0.90
2023-01-08T01:12:58.272Z,0.80
2023-01-08T01:15:25.518Z,0.70
2023-01-08T01:17:52.344Z,0.70
2023-01-08T01:20:19.268Z,0.70
2023-01-08T01:22:46.129Z,0.70
2023-01-08T01:25:12.950Z,0.70
2023-01-08T01:27:39.879Z,0.70
2023-01-08T01:30:08.199Z,0.70
2023-01-08T01:32:35.388Z,0.70
2023-01-08T01:35:02.755Z,0.60
2023-01-08T01:37:29.564Z,0.60
2023-01-08T01:39:56.636Z,0.60
2023-01-08T01:42:41.507Z,0.50
2023-01-08T01:45:31.333Z,0.60
2023-01-08T01:48:12.247Z,0.60
2023-01-08T01:50:47.236Z,0.70
2023-01-08T01:53:27.595Z,0.80
2023-01-08T01:55:55.222Z,0.70
2023-01-08T01:58:28.949Z,0.70
2023-01-08T02:00:58.809Z,0.70
2023-01-08T02:03:30.991Z,0.70
2023-01-08T02:06:06.677Z,0.60
2023-01-08T02:09:07.339Z,0.50
2023-01-08T02:12:16.561Z,0.10
2023-01-08T02:15:13.099Z,0.10
2023-01-08T02:18:07.914Z,0.10
2023-01-08T02:20:38.202Z,0.10
2023-01-08T02:23:33.069Z,0.10
2023-01-08T02:26:26.203Z,0.20
2023-01-08T02:29:00.151Z,0.10
2023-01-08T02:31:29.677Z,0.00
2023-01-08T02:33:56.838Z,0.00
2023-01-08T02:36:41.924Z,0.10
2023-01-08T02:39:30.070Z,0.10
2023-01-08T02:42:28.960Z,0.10
2023-01-08T02:45:38.397Z,0.10
2023-01-08T02:48:45.632Z,0.10
2023-01-08T02:51:34.462Z,0.20
2023-01-08T02:54:13.452Z,0.30
2023-01-08T02:56:46.833Z,0.10
2023-01-08T02:59:15.379Z,0.00
2023-01-08T03:01:43.671Z,-0.10
2023-01-08T03:04:22.441Z,-0.10
2023-01-08T03:06:50.409Z,0.00
2023-01-08T03:09:18.735Z,-0.10
2023-01-08T03:11:57.941Z,-0.10
2023-01-08T03:14:36.645Z,-0.20
2023-01-08T03:17:52.946Z,-0.20
2023-01-08T03:20:22.965Z,-0.40
2023-01-08T03:22:57.563Z,-0.50
2023-01-08T03:25:28.206Z,-0.60
2023-01-08T03:28:00.577Z,-0.60
2023-01-08T03:30:30.382Z,-0.70
2023-01-08T03:33:00.167Z,-0.70
2023-01-08T03:35:28.365Z,-0.80
2023-01-08T03:38:13.254Z,-0.80
2023-01-08T03:40:46.335Z,-0.80
2023-01-08T03:43:13.341Z,-0.70
2023-01-08T03:45:49.841Z,-0.60
2023-01-08T03:48:19.483Z,-0.50
2023-01-08T03:50:46.732Z,-0.40
2023-01-08T03:53:13.606Z,-0.40
2023-01-08T03:55:40.410Z,-0.50
2023-01-08T03:58:07.222Z,-0.60
2023-01-08T04:00:34.122Z,-0.70
2023-01-08T04:03:00.915Z,-0.70
2023-01-08T04:05:27.748Z,-0.60
2023-01-08T04:07:58.146Z,-0.50
2023-01-08T04:10:25.750Z,-0.40
2023-01-08T04:12:52.884Z,-0.30
2023-01-08T04:15:20.799Z,-0.20
2023-01-08T04:17:47.652Z,0.00
2023-01-08T04:20:14.436Z,0.10
2023-01-08T04:22:41.228Z,0.20
2023-01-08T04:25:08.570Z,0.20
2023-01-08T04:27:35.419Z,0.20
2023-01-08T04:30:02.451Z,0.30
2023-01-08T04:32:29.261Z,0.30
2023-01-08T04:34:56.149Z,0.30
2023-01-08T04:37:22.988Z,0.20
2023-01-08T04:39:49.913Z,0.10
2023-01-08T04:42:16.752Z,0.10
2023-01-08T04:44:43.636Z,0.20
2023-01-08T04:47:10.490Z,0.20
2023-01-08T04:49:37.425Z,0.20
2023-01-08T04:52:04.507Z,0.30
2023-01-08T04:54:31.287Z,0.30
2023-01-08T04:56:58.131Z,0.30
2023-01-08T04:59:24.939Z,0.10
2023-01-08T05:01:51.934Z,-0.10
2023-01-08T05:04:18.790Z,-0.20
2023-01-08T05:06:45.617Z,-0.30
2023-01-08T05:09:12.435Z,-0.30
2023-01-08T05:11:39.472Z,-0.40
2023-01-08T05:14:06.288Z,-0.50
2023-01-08T05:16:33.349Z,-0.50
2023-01-08T05:19:00.171Z,-0.40
2023-01-08T05:21:26.965Z,-0.40
2023-01-08T05:23:53.878Z,-0.40
2023-01-08T05:26:20.723Z,-0.40
2023-01-08T05:28:47.678Z,-0.40
2023-01-08T05:31:15.406Z,-0.40
2023-01-08T05:33:42.394Z,-0.40
2023-01-08T05:36:12.378Z,-0.40
2023-01-08T05:38:39.931Z,-0.40
2023-01-08T05:41:07.609Z,-0.40
2023-01-08T05:43:35.238Z,-0.40
2023-01-08T05:46:04.025Z,-0.40
2023-01-08T05:48:33.747Z,-0.30
2023-01-08T05:51:00.902Z,-0.30
2023-01-08T05:53:27.804Z,-0.20
2023-01-08T05:56:02.793Z,-0.10
2023-01-08T05:58:30.459Z,-0.10
2023-01-08T06:01:23.597Z,0.00
2023-01-08T06:03:50.483Z,0.00
2023-01-08T06:06:17.650Z,0.10
2023-01-08T06:08:44.428Z,0.10
2023-01-08T06:11:11.985Z,0.20
2023-01-08T06:13:42.993Z,0.20
2023-01-08T06:16:10.840Z,0.20
2023-01-08T06:18:37.701Z,0.30
2023-01-08T06:21:05.267Z,0.30
2023-01-08T06:23:33.312Z,0.30
2023-01-08T06:26:04.152Z,0.30
2023-01-08T06:28:31.433Z,0.40
2023-01-08T06:31:03.561Z,0.30
2023-01-08T06:33:31.486Z,0.30
2023-01-08T06:36:04.372Z,0.40
2023-01-08T06:38:33.203Z,0.40
2023-01-08T06:41:08.535Z,0.30
2023-01-08T06:43:36.147Z,0.30
2023-01-08T06:46:08.758Z,0.30
2023-01-08T06:48:36.549Z,0.20
2023-01-08T06:51:05.123Z,0.20
2023-01-08T06:53:32.428Z,0.00
2023-01-08T06:55:59.363Z,-0.10
2023-01-08T06:58:27.973Z,-0.20
2023-01-08T07:00:54.862Z,-0.20
2023-01-08T07:03:22.009Z,-0.10
2023-01-08T07:05:50.740Z,0.00
2023-01-08T07:08:18.615Z,0.10
2023-01-08T07:10:45.972Z,0.10
2023-01-08T07:13:13.061Z,0.10
2023-01-08T07:15:41.214Z,0.10
2023-01-08T07:18:10.830Z,0.10
2023-01-08T07:20:38.364Z,0.10
2023-01-08T07:23:09.482Z,0.10
2023-01-08T07:25:36.287Z,0.30
2023-01-08T07:28:03.164Z,0.40
2023-01-08T07:30:30.713Z,0.50
2023-01-08T07:33:01.893Z,0.60
2023-01-08T07:35:29.147Z,0.60
2023-01-08T07:37:56.281Z,0.70
2023-01-08T07:40:23.761Z,0.80
2023-01-08T07:42:59.436Z,0.80
2023-01-08T07:45:28.095Z,0.80
2023-01-08T07:47:57.877Z,0.80
2023-01-08T07:50:24.978Z,0.70
2023-01-08T07:52:51.843Z,0.80
2023-01-08T07:55:18.625Z,0.70
2023-01-08T07:57:45.443Z,0.70
2023-01-08T08:00:14.728Z,0.80
2023-01-08T08:02:41.719Z,0.80
2023-01-08T08:05:09.076Z,0.70
2023-01-08T08:07:36.312Z,0.80
2023-01-08T08:10:04.832Z,0.90
2023-01-08T08:12:32.064Z,1.00
2023-01-08T08:14:58.857Z,1.00
2023-01-08T08:17:26.816Z,1.10
2023-01-08T08:19:53.816Z,1.20
2023-01-08T08:22:20.740Z,1.20
2023-01-08T08:24:47.547Z,1.30
2023-01-08T08:27:14.430Z,1.40
2023-01-08T08:29:41.210Z,1.30
2023-01-08T08:32:08.069Z,1.20
2023-01-08T08:34:34.893Z,1.20
2023-01-08T08:37:01.754Z,1.40
2023-01-08T08:39:28.571Z,1.50
2023-01-08T08:41:55.416Z,1.70
2023-01-08T08:44:22.310Z,1.80
2023-01-08T08:46:49.183Z,1.90
2023-01-08T08:49:16.068Z,1.90
2023-01-08T08:51:42.859Z,2.00
2023-01-08T08:54:11.569Z,2.20
2023-01-08T08:56:38.425Z,2.20
2023-01-08T08:59:05.241Z,2.20
2023-01-08T09:01:32.157Z,2.50
2023-01-08T09:03:59.033Z,2.70
2023-01-08T09:06:27.659Z,2.90
2023-01-08T09:08:55.142Z,2.90
2023-01-08T09:11:22.005Z,3.20
2023-01-08T09:13:48.913Z,3.50
2023-01-08T09:16:15.750Z,3.80
2023-01-08T09:18:42.647Z,4.10
2023-01-08T09:21:09.541Z,4.50
2023-01-08T09:23:36.499Z,5.30
2023-01-08T09:26:05.006Z,6.30
2023-01-08T09:28:32.738Z,7.10
2023-01-08T09:31:03.831Z,7.50
2023-01-08T09:33:31.666Z,7.60
2023-01-08T09:35:58.484Z,7.50
2023-01-08T09:38:25.414Z,7.20
2023-01-08T09:41:03.626Z,6.70
2023-01-08T09:43:35.077Z,5.60
2023-01-08T09:46:05.519Z,4.30
2023-01-08T09:48:37.171Z,3.80
2023-01-08T09:51:04.380Z,3.90
2023-01-08T09:53:33.166Z,3.90
2023-01-08T09:56:10.111Z,4.20
2023-01-08T09:58:45.049Z,4.20
2023-01-08T10:01:15.202Z,4.10
2023-01-08T10:03:47.935Z,4.10
2023-01-08T10:06:16.791Z,4.40
2023-01-08T10:11:16.859Z,5.70
2023-01-08T10:13:49.822Z,7.20
2023-01-08T10:16:32.664Z,8.50
2023-01-08T10:19:00.132Z,8.40
2023-01-08T10:21:37.047Z,7.20
2023-01-08T10:24:04.398Z,7.20
2023-01-08T10:26:36.515Z,6.90
2023-01-08T10:29:18.025Z,6.30
2023-01-08T10:32:10.304Z,7.30
2023-01-08T10:35:04.821Z,7.40
2023-01-08T10:37:43.049Z,8.70
2023-01-08T10:40:42.163Z,10.10
2023-01-08T10:43:15.515Z,11.70
2023-01-08T10:45:44.224Z,12.00
2023-01-08T10:48:18.387Z,12.20
2023-01-08T10:50:45.374Z,11.10
2023-01-08T10:53:25.413Z,8.80
2023-01-08T10:56:01.655Z,8.60
2023-01-08T10:58:30.159Z,8.50
2023-01-08T11:01:11.287Z,8.80
2023-01-08T11:03:38.329Z,8.80
2023-01-08T11:06:23.291Z,8.80
2023-01-08T11:08:57.357Z,8.40
2023-01-08T11:11:24.816Z,7.80
2023-01-08T11:14:00.310Z,7.30
2023-01-08T11:16:38.764Z,6.90
2023-01-08T11:19:18.762Z,6.50
2023-01-08T11:22:16.065Z,6.30
2023-01-08T11:24:43.812Z,6.30
2023-01-08T11:27:33.297Z,6.50
2023-01-08T11:30:05.335Z,6.50
2023-01-08T11:32:56.124Z,6.70
2023-01-08T11:35:39.405Z,6.80
2023-01-08T11:38:08.327Z,7.00
2023-01-08T11:40:55.177Z,7.20
2023-01-08T11:44:07.386Z,7.40
2023-01-08T11:46:46.622Z,7.50
2023-01-08T11:49:51.091Z,7.90
2023-01-08T11:52:36.682Z,8.20
2023-01-08T11:55:30.541Z,8.40
2023-01-08T11:58:30.610Z,8.50
2023-01-08T12:01:35.409Z,8.40
2023-01-08T12:04:36.340Z,8.60
2023-01-08T12:07:20.117Z,8.70
2023-01-08T12:10:00.311Z,8.60
2023-01-08T12:12:59.241Z,8.50
2023-01-08T12:15:49.590Z,8.30
2023-01-08T12:18:58.156Z,8.00
2023-01-08T12:21:33.033Z,7.80
2023-01-08T12:24:23.968Z,7.70
2023-01-08T12:27:17.716Z,7.70
2023-01-08T12:30:25.013Z,7.80
2023-01-08T12:33:20.061Z,7.70
2023-01-08T12:35:52.724Z,7.70
2023-01-08T12:38:44.575Z,7.70
2023-01-08T12:41:18.713Z,7.90
2023-01-08T12:44:05.444Z,7.90
2023-01-08T12:46:36.065Z,8.00
2023-01-08T12:49:06.291Z,8.00
2023-01-08T12:51:48.403Z,8.00
2023-01-08T12:54:32.351Z,8.10
2023-01-08T12:57:10.220Z,8.10
2023-01-08T13:00:06.003Z,8.00
2023-01-08T13:02:52.902Z,8.00
2023-01-08T13:05:19.701Z,7.90
2023-01-08T13:07:57.549Z,8.00
2023-01-08T13:10:41.589Z,8.00
2023-01-08T13:13:27.047Z,7.90
2023-01-08T13:16:17.350Z,7.80
2023-01-08T13:18:59.822Z,7.80
2023-01-08T13:21:51.057Z,7.70
2023-01-08T13:24:34.627Z,7.70
2023-01-08T13:27:16.918Z,7.70
2023-01-08T13:29:49.822Z,7.50
2023-01-08T13:32:47.277Z,7.60
2023-01-08T13:35:17.318Z,7.50
2023-01-08T13:37:53.249Z,7.50
2023-01-08T13:40:36.443Z,7.40
2023-01-08T13:43:06.207Z,7.50
2023-01-08T13:45:33.771Z,7.30
2023-01-08T13:48:01.761Z,7.30
2023-01-08T13:50:30.516Z,7.30
2023-01-08T13:53:04.200Z,7.40
2023-01-08T13:55:40.906Z,7.40
2023-01-08T13:58:18.736Z,7.40
2023-01-08T14:00:50.459Z,7.40
2023-01-08T14:03:33.346Z,7.50
2023-01-08T14:06:17.010Z,7.50
2023-01-08T14:09:03.720Z,7.40
2023-01-08T14:11:45.095Z,7.20
2023-01-08T14:14:22.829Z,7.30
2023-01-08T14:16:52.448Z,7.30
2023-01-08T14:19:23.781Z,7.30
2023-01-08T14:21:58.093Z,7.20
2023-01-08T14:24:26.298Z,7.10
2023-01-08T14:26:57.007Z,7.10
2023-01-08T14:29:29.568Z,7.30
2023-01-08T14:32:00.328Z,7.30
2023-01-08T14:34:31.101Z,7.40
2023-01-08T14:36:58.070Z,7.30
2023-01-08T14:39:39.883Z,7.30
2023-01-08T14:42:42.313Z,7.30
2023-01-08T14:45:24.738Z,7.30
2023-01-08T14:47:56.584Z,7.30
2023-01-08T14:50:33.173Z,7.30
2023-01-08T14:53:14.918Z,7.30
2023-01-08T14:55:48.881Z,7.30
2023-01-08T14:58:23.392Z,7.20
2023-01-08T15:00:57.974Z,7.20
2023-01-08T15:03:41.191Z,7.10
2023-01-08T15:06:11.350Z,7.00
2023-01-08T15:08:44.808Z,6.90
2023-01-08T15:11:36.090Z,6.90
2023-01-08T15:14:14.673Z,6.90
2023-01-08T15:16:43.187Z,6.90
2023-01-08T15:19:19.748Z,7.00
2023-01-08T15:21:52.775Z,7.10
2023-01-08T15:24:28.052Z,7.00
2023-01-08T15:26:55.510Z,7.00
2023-01-08T15:29:33.327Z,7.00
2023-01-08T15:32:15.079Z,6.90
2023-01-08T15:34:43.721Z,6.80
2023-01-08T15:37:11.380Z,6.80
2023-01-08T15:39:38.315Z,6.80
2023-01-08T15:42:50.281Z,6.80
2023-01-08T15:45:28.104Z,6.80
2023-01-08T15:47:55.453Z,6.80
2023-01-08T15:50:23.986Z,6.70
2023-01-08T15:52:50.866Z,6.80
2023-01-08T15:55:21.190Z,6.80
2023-01-08T15:57:48.595Z,6.80
2023-01-08T16:00:18.678Z,6.80
2023-01-08T16:02:51.977Z,6.70
2023-01-08T16:05:21.437Z,6.80
2023-01-08T16:07:48.372Z,6.80
2023-01-08T16:10:16.916Z,6.80
2023-01-08T16:12:44.041Z,6.80
2023-01-08T16:15:12.593Z,6.70
2023-01-08T16:17:39.770Z,6.70
2023-01-08T16:20:08.515Z,6.70
2023-01-08T16:22:35.434Z,6.70
2023-01-08T16:25:02.372Z,6.70
2023-01-08T16:27:32.038Z,6.70
2023-01-08T16:29:59.193Z,6.60
2023-01-08T16:32:26.001Z,6.60
2023-01-08T16:34:54.887Z,6.50
2023-01-08T16:37:22.505Z,6.60
2023-01-08T16:39:49.685Z,6.60
2023-01-08T16:42:16.572Z,6.60
2023-01-08T16:44:43.409Z,6.50
2023-01-08T16:47:10.328Z,6.50
2023-01-08T16:49:37.168Z,6.40
2023-01-08T16:52:04.219Z,6.30
2023-01-08T16:54:31.889Z,6.20
2023-01-08T16:56:58.751Z,6.10
2023-01-08T16:59:26.957Z,5.90
2023-01-08T17:01:53.894Z,6.00
2023-01-08T17:04:20.971Z,5.80
2023-01-08T17:06:47.864Z,5.80
2023-01-08T17:09:15.120Z,5.70
2023-01-08T17:11:42.817Z,5.60
2023-01-08T17:14:10.230Z,5.50
2023-01-08T17:16:37.524Z,5.50
2023-01-08T17:19:04.833Z,5.40
2023-01-08T17:21:33.633Z,5.30
2023-01-08T17:24:00.642Z,5.30
2023-01-08T17:26:27.565Z,5.20
2023-01-08T17:28:54.993Z,5.10
2023-01-08T17:31:21.977Z,5.00
2023-01-08T17:33:50.602Z,5.00
2023-01-08T17:36:24.127Z,4.90
2023-01-08T17:38:53.509Z,4.90
2023-01-08T17:41:40.891Z,4.90
2023-01-08T17:44:10.025Z,4.80
2023-01-08T17:46:43.826Z,4.80
2023-01-08T17:49:14.679Z,4.80
2023-01-08T17:51:42.712Z,4.70
2023-01-08T17:54:15.046Z,4.70
2023-01-08T17:56:43.109Z,4.60
2023-01-08T17:59:18.028Z,4.60
2023-01-08T18:01:45.826Z,4.50
2023-01-08T18:04:14.179Z,4.60
2023-01-08T18:06:42.070Z,4.60
2023-01-08T18:09:12.493Z,4.70
2023-01-08T18:11:41.489Z,4.60
2023-01-08T18:14:14.544Z,4.60
2023-01-08T18:16:45.543Z,4.70
2023-01-08T18:19:13.621Z,4.70
2023-01-08T18:21:40.503Z,4.60
2023-01-08T18:24:07.934Z,4.50
2023-01-08T18:26:34.776Z,4.50
2023-01-08T18:29:01.743Z,4.60
2023-01-08T18:31:29.537Z,4.50
2023-01-08T18:33:56.664Z,4.50
2023-01-08T18:36:23.465Z,4.50
2023-01-08T18:38:51.461Z,4.50
2023-01-08T18:41:39.179Z,4.50
2023-01-08T18:44:09.087Z,4.50
2023-01-08T18:46:36.202Z,4.50
2023-01-08T18:49:03.222Z,4.50
2023-01-08T18:51:30.083Z,4.50
2023-01-08T18:53:56.935Z,4.50
2023-01-08T18:56:36.090Z,4.50
2023-01-08T18:59:05.818Z,4.60
2023-01-08T19:01:35.160Z,4.60
2023-01-08T19:04:02.172Z,4.60
2023-01-08T19:06:29.051Z,4.60
2023-01-08T19:08:58.829Z,4.70
2023-01-08T19:11:26.172Z,4.70
2023-01-08T19:13:57.338Z,4.70
2023-01-08T19:16:24.632Z,4.60
2023-01-08T19:18:51.642Z,4.50
2023-01-08T19:21:19.647Z,4.50
2023-01-08T19:23:47.531Z,4.60
2023-01-08T19:26:17.580Z,4.60
2023-01-08T19:28:44.859Z,4.60
2023-01-08T19:31:17.659Z,4.50
2023-01-08T19:33:46.561Z,4.50
2023-01-08T19:36:16.271Z,4.50
2023-01-08T19:38:44.376Z,4.50
2023-01-08T19:41:30.980Z,4.50
2023-01-08T19:43:59.265Z,4.60
2023-01-08T19:46:26.483Z,4.50
2023-01-08T19:48:57.024Z,4.50
2023-01-08T19:51:24.937Z,4.50
2023-01-08T19:53:53.286Z,4.50
2023-01-08T19:56:20.196Z,4.50
2023-01-08T19:58:47.308Z,4.50
2023-01-08T20:01:21.352Z,4.50
2023-01-08T20:03:49.091Z,4.50
2023-01-08T20:06:22.780Z,4.60
2023-01-08T20:08:59.297Z,4.60
2023-01-08T20:11:27.864Z,4.60
2023-01-08T20:13:56.275Z,4.60
2023-01-08T20:16:24.467Z,4.70
2023-01-08T20:18:51.374Z,4.60
2023-01-08T20:21:23.927Z,4.50
2023-01-08T20:24:04.472Z,4.60
2023-01-08T20:26:32.082Z,4.50
2023-01-08T20:28:59.639Z,4.50
2023-01-08T20:31:32.819Z,4.50
2023-01-08T20:34:01.778Z,4.50
2023-01-08T20:36:32.516Z,4.50
2023-01-08T20:39:04.852Z,4.50
2023-01-08T20:41:31.689Z,4.50
2023-01-08T20:43:58.644Z,4.50
2023-01-08T20:46:28.570Z,4.40
2023-01-08T20:49:03.596Z,4.40
2023-01-08T20:51:36.527Z,4.40
2023-01-08T20:54:06.230Z,4.50
2023-01-08T20:56:33.383Z,4.60
2023-01-08T20:59:01.939Z,4.50
2023-01-08T21:01:35.506Z,4.40
2023-01-08T21:04:05.802Z,4.50
2023-01-08T21:06:34.662Z,4.60
2023-01-08T21:09:06.791Z,4.60
2023-01-08T21:11:36.878Z,4.60
2023-01-08T21:14:04.956Z,4.60
2023-01-08T21:16:35.315Z,4.60
2023-01-08T21:19:02.739Z,4.60
2023-01-08T21:21:33.064Z,4.60
2023-01-08T21:24:04.361Z,4.60
2023-01-08T21:26:37.452Z,4.70
2023-01-08T21:29:08.847Z,4.60
2023-01-08T21:31:36.681Z,4.50
2023-01-08T21:34:05.332Z,4.60
2023-01-08T21:36:32.852Z,4.60
2023-01-08T21:39:01.424Z,4.60
2023-01-08T21:41:48.735Z,4.60
2023-01-08T21:44:48.628Z,4.60
2023-01-08T21:47:17.684Z,4.60
2023-01-08T21:49:45.430Z,4.60
2023-01-08T21:52:31.046Z,4.60
2023-01-08T21:54:58.173Z,4.60
2023-01-08T21:57:28.013Z,4.60
2023-01-08T21:59:55.736Z,4.70
2023-01-08T22:02:24.411Z,4.70
2023-01-08T22:04:55.619Z,4.50
2023-01-08T22:07:23.094Z,4.60
2023-01-08T22:09:49.924Z,4.50
2023-01-08T22:12:17.240Z,4.60
2023-01-08T22:14:44.124Z,4.60
2023-01-08T22:17:11.186Z,4.70
2023-01-08T22:19:38.952Z,4.60
2023-01-08T22:22:08.224Z,4.60
2023-01-08T22:24:37.184Z,4.60
2023-01-08T22:27:03.956Z,4.60
2023-01-08T22:29:31.004Z,4.60
2023-01-08T22:31:57.973Z,4.60
2023-01-08T22:34:24.813Z,4.50
2023-01-08T22:36:53.069Z,4.50
2023-01-08T22:39:19.899Z,4.50
2023-01-08T22:41:46.858Z,4.50
2023-01-08T22:44:14.452Z,4.50
2023-01-08T22:46:41.595Z,4.50
2023-01-08T22:49:11.440Z,4.40
2023-01-08T22:51:38.811Z,4.30
2023-01-08T22:54:05.760Z,4.20
2023-01-08T22:56:32.804Z,4.30
2023-01-08T22:58:59.614Z,4.20
2023-01-08T23:01:27.608Z,4.30
2023-01-08T23:03:59.004Z,4.30
2023-01-08T23:06:29.101Z,4.40
2023-01-08T23:08:56.460Z,4.30
2023-01-08T23:11:24.820Z,4.30
2023-01-08T23:13:51.926Z,4.30
2023-01-08T23:16:24.253Z,4.30
2023-01-08T23:18:53.362Z,4.30
2023-01-08T23:21:23.619Z,4.30
2023-01-08T23:23:50.849Z,4.20
2023-01-08T23:26:27.595Z,4.20
2023-01-08T23:28:56.742Z,4.20
2023-01-08T23:31:30.891Z,4.20
2023-01-08T23:33:58.226Z,4.20
2023-01-08T23:36:25.806Z,4.20
2023-01-08T23:38:55.640Z,4.20
2023-01-08T23:41:33.058Z,4.30
2023-01-08T23:44:08.125Z,4.30
2023-01-08T23:46:35.921Z,4.30
2023-01-08T23:49:03.377Z,4.20
2023-01-08T23:51:30.614Z,4.00
2023-01-08T23:53:57.402Z,4.10
2023-01-08T23:56:24.403Z,4.10
2023-01-08T23:58:51.341Z,4.10
